Time;durP1;ratioP1;P1;durP2;ratioP2;P2;SDS_P1;SDS_P2;PMS_P1;PMS_P2;Temp;Humidity;BMP_temperature;BMP_pressure;BME280_temperature;BME280_humidity;BME280_pressure;Samples;Min_cycle;Max_cycle;Signal;HPM_P1;HPM_P2
2024/02/19 00:00:42;;;;;;;8.10;4.40;;;;;;;8.33;100.00;101233.75;6101221;23;20693;-75
2024/02/19 00:03:08;;;;;;;7.63;4.57;;;;;;;8.32;100.00;101225.06;6105993;23;20164;-74
2024/02/19 00:05:38;;;;;;;7.23;5.17;;;;;;;8.30;100.00;101223.78;6110793;23;20249;-74
2024/02/19 00:08:05;;;;;;;6.20;4.73;;;;;;;8.31;100.00;101225.34;6110387;23;20518;-74
2024/02/19 00:10:32;;;;;;;8.03;4.97;;;;;;;8.31;100.00;101227.97;6110450;23;20551;-75
2024/02/19 00:12:58;;;;;;;6.10;5.00;;;;;;;8.30;100.00;101219.31;6068203;23;20176;-75
2024/02/19 00:15:24;;;;;;;7.23;5.17;;;;;;;8.31;100.00;101215.63;6106326;23;20261;-75
2024/02/19 00:17:54;;;;;;;5.83;4.47;;;;;;;8.30;100.00;101206.16;6107329;23;20162;-75
2024/02/19 00:20:21;;;;;;;7.20;4.83;;;;;;;8.30;100.00;101206.16;6072402;23;20571;-74
2024/02/19 00:22:49;;;;;;;6.77;4.67;;;;;;;8.31;100.00;101206.94;6107517;23;20174;-74
2024/02/19 00:25:16;;;;;;;6.77;4.07;;;;;;;8.32;100.00;101190.06;6106680;23;20536;-77
2024/02/19 00:27:43;;;;;;;9.20;4.80;;;;;;;8.32;100.00;101200.59;6107533;23;20189;-75
2024/02/19 00:30:10;;;;;;;6.47;4.23;;;;;;;8.32;100.00;101196.13;6106786;23;20172;-74
2024/02/19 00:32:36;;;;;;;6.47;4.53;;;;;;;8.30;100.00;101190.38;6107390;23;20186;-75
2024/02/19 00:35:04;;;;;;;6.80;4.60;;;;;;;8.31;100.00;101184.03;6102967;23;20221;-74
2024/02/19 00:37:30;;;;;;;6.30;5.20;;;;;;;8.32;100.00;101177.69;6065141;23;20256;-74
2024/02/19 00:39:58;;;;;;;7.03;5.03;;;;;;;8.32;100.00;101174.28;6100533;23;20567;-74
2024/02/19 00:42:24;;;;;;;7.20;4.60;;;;;;;8.31;100.00;101162.19;6064653;23;20307;-74
2024/02/19 00:44:51;;;;;;;5.57;4.47;;;;;;;8.31;100.00;101167.47;6100296;23;20180;-74
2024/02/19 00:47:17;;;;;;;6.30;4.43;;;;;;;8.30;100.00;101160.66;6022629;23;1029606;-74
2024/02/19 00:49:44;;;;;;;6.03;4.43;;;;;;;8.30;100.00;101156.19;6102070;23;20193;-74
2024/02/19 00:52:11;;;;;;;6.03;4.60;;;;;;;8.29;100.00;101149.34;6101756;23;20168;-74
2024/02/19 00:54:38;;;;;;;7.13;4.23;;;;;;;8.29;100.00;101151.22;6101390;23;20612;-75
2024/02/19 00:57:05;;;;;;;8.37;4.70;;;;;;;8.29;100.00;101145.94;6065986;23;20511;-75
2024/02/19 00:59:32;;;;;;;6.63;4.03;;;;;;;8.27;100.00;101143.59;6101592;23;20192;-74
2024/02/19 01:01:58;;;;;;;6.77;4.33;;;;;;;8.28;100.00;101133.88;6101581;23;20173;-74
2024/02/19 01:04:25;;;;;;;6.63;4.57;;;;;;;8.27;100.00;101122.56;6101873;23;20217;-74
2024/02/19 01:06:51;;;;;;;6.63;4.27;;;;;;;8.27;100.00;101129.66;6100864;23;20244;-74
2024/02/19 01:09:18;;;;;;;6.73;4.70;;;;;;;8.26;100.00;101117.59;6101616;23;20215;-75
2024/02/19 01:11:44;;;;;;;5.00;3.60;;;;;;;8.25;100.00;101119.44;6101487;23;20224;-75
2024/02/19 01:14:12;;;;;;;5.43;3.77;;;;;;;8.26;100.00;101118.38;6101204;23;20198;-74
2024/02/19 01:16:38;;;;;;;5.80;4.37;;;;;;;8.27;100.00;101113.88;6065725;23;20181;-74
2024/02/19 01:19:05;;;;;;;5.83;4.33;;;;;;;8.26;100.00;101105.22;6101874;23;20189;-75
2024/02/19 01:21:32;;;;;;;5.17;4.03;;;;;;;8.26;100.00;101107.84;6101395;23;20165;-75
2024/02/19 01:23:58;;;;;;;6.37;4.10;;;;;;;8.26;100.00;101104.44;6101365;23;20161;-75
2024/02/19 01:26:25;;;;;;;4.60;3.73;;;;;;;8.25;100.00;101101.03;6101575;23;20172;-75
2024/02/19 01:28:51;;;;;;;7.03;4.30;;;;;;;8.25;100.00;101095.78;6101909;23;20212;-75
2024/02/19 01:31:21;;;;;;;4.60;3.77;;;;;;;8.26;100.00;101089.44;6066339;23;20184;-75
2024/02/19 01:33:48;;;;;;;5.63;4.23;;;;;;;8.27;100.00;101087.56;6102008;23;20428;-74
2024/02/19 01:36:14;;;;;;;5.97;4.03;;;;;;;8.27;100.00;101069.94;6090682;23;20559;-74
2024/02/19 01:38:42;;;;;;;4.43;3.73;;;;;;;8.26;100.00;101073.66;6100746;23;20268;-75
2024/02/19 01:41:08;;;;;;;4.33;3.87;;;;;;;8.27;100.00;101072.56;6101769;23;20476;-75
2024/02/19 01:43:36;;;;;;;4.50;3.30;;;;;;;8.29;100.00;101067.00;6065599;23;20176;-74
2024/02/19 01:46:03;;;;;;;5.43;3.77;;;;;;;8.28;100.00;101063.59;6102044;23;20464;-76
2024/02/19 01:48:30;;;;;;;4.40;3.30;;;;;;;8.29;100.00;101059.88;6101407;23;20192;-74
2024/02/19 01:50:57;;;;;;;5.30;3.57;;;;;;;8.29;100.00;101057.25;6066259;23;20180;-74
2024/02/19 01:53:27;;;;;;;5.80;3.50;;;;;;;8.28;100.00;101053.06;6101365;23;20635;-75
2024/02/19 01:55:53;;;;;;;4.83;3.13;;;;;;;8.30;100.00;101048.31;6100213;23;20212;-75
2024/02/19 01:58:20;;;;;;;4.37;3.43;;;;;;;8.30;100.00;101050.16;6099734;23;20635;-75
2024/02/19 02:00:49;;;;;;;6.40;3.57;;;;;;;8.30;100.00;101053.56;6102019;23;20173;-74
2024/02/19 02:03:17;;;;;;;5.13;2.93;;;;;;;8.30;100.00;101050.94;6101272;23;20170;-74
2024/02/19 02:05:47;;;;;;;3.90;3.00;;;;;;;8.31;100.00;101043.81;6101298;23;20475;-75
2024/02/19 02:08:13;;;;;;;6.83;3.37;;;;;;;8.31;100.00;101039.34;6100047;23;20193;-75
2024/02/19 02:10:40;;;;;;;4.30;3.13;;;;;;;8.31;100.00;101039.34;6101461;23;20168;-74
2024/02/19 02:13:06;;;;;;;3.10;2.70;;;;;;;8.32;100.00;101034.84;6064147;23;20176;-75
2024/02/19 02:15:33;;;;;;;2.93;2.63;;;;;;;8.32;100.00;101026.94;6097739;23;20186;-74
2024/02/19 02:18:00;;;;;;;2.80;2.57;;;;;;;8.32;100.00;101027.72;6101418;23;20241;-75
2024/02/19 02:20:26;;;;;;;4.67;2.50;;;;;;;8.33;100.00;101025.88;6065764;23;20421;-74
2024/02/19 02:22:56;;;;;;;3.10;2.53;;;;;;;8.34;100.00;101030.81;6101069;23;20243;-74
2024/02/19 02:25:22;;;;;;;4.97;2.90;;;;;;;8.34;100.00;101022.94;6066059;23;20272;-74
2024/02/19 02:27:50;;;;;;;3.87;2.67;;;;;;;8.34;100.00;101020.28;6101059;23;20169;-74
2024/02/19 02:30:16;;;;;;;2.77;2.10;;;;;;;8.35;100.00;101021.09;6101299;23;20169;-74
2024/02/19 02:32:43;;;;;;;4.10;2.27;;;;;;;8.36;100.00;101007.63;6066170;23;20170;-75
2024/02/19 02:35:09;;;;;;;2.70;2.50;;;;;;;8.37;100.00;101011.81;6100850;23;20209;-75
2024/02/19 02:41:22;;;;;;;3.03;2.50;;;;;;;8.39;100.00;100998.38;6100952;23;20490;-75
2024/02/19 02:43:50;;;;;;;2.77;2.30;;;;;;;8.39;100.00;100995.75;6100193;23;20173;-75
2024/02/19 02:46:16;;;;;;;2.80;2.40;;;;;;;8.40;100.00;100984.91;6101839;23;20244;-75
2024/02/19 02:48:43;;;;;;;2.40;2.20;;;;;;;8.42;100.00;100992.50;6101711;23;20192;-74
2024/02/19 02:51:09;;;;;;;2.80;2.10;;;;;;;8.42;100.00;100989.84;6100811;23;20168;-75
2024/02/19 02:53:36;;;;;;;2.50;2.20;;;;;;;8.43;100.00;100991.44;6101192;23;20162;-75
2024/02/19 02:56:02;;;;;;;2.43;1.93;;;;;;;8.44;100.00;100982.47;6101744;23;20571;-75
2024/02/19 02:58:29;;;;;;;2.67;2.30;;;;;;;8.44;100.00;100980.59;6101501;23;20264;-76
2024/02/19 03:00:56;;;;;;;2.30;1.93;;;;;;;8.48;100.00;100980.75;6065582;23;20638;-74
2024/02/19 03:03:23;;;;;;;2.20;2.00;;;;;;;8.48;100.00;100984.19;6102015;23;20166;-75
2024/02/19 03:05:49;;;;;;;3.67;2.33;;;;;;;8.50;100.00;100976.75;6101901;23;20607;-74
2024/02/19 03:08:15;;;;;;;2.97;1.53;;;;;;;8.53;100.00;100976.16;6100509;23;20534;-74
2024/02/19 03:10:43;;;;;;;1.97;1.70;;;;;;;8.55;100.00;100967.97;6100728;23;20249;-74
2024/02/19 03:13:09;;;;;;;2.23;1.73;;;;;;;8.56;100.00;100958.97;6101688;23;20173;-75
2024/02/19 03:15:36;;;;;;;2.83;1.80;;;;;;;8.57;100.00;100966.59;6101683;23;20523;-74
2024/02/19 03:18:04;;;;;;;1.40;1.30;;;;;;;8.59;100.00;100958.38;6100976;23;20628;-74
2024/02/19 03:20:30;;;;;;;1.80;1.30;;;;;;;8.61;100.00;100956.22;6101357;23;20247;-73
2024/02/19 03:22:56;;;;;;;1.87;1.63;;;;;;;8.62;100.00;100950.66;6101022;23;20519;-72
2024/02/19 03:25:23;;;;;;;1.83;1.53;;;;;;;8.65;100.00;100949.28;6101921;23;20192;-73
2024/02/19 03:27:51;;;;;;;1.53;1.43;;;;;;;8.66;100.00;100951.63;6101368;23;20163;-73
2024/02/19 03:30:18;;;;;;;1.40;1.30;;;;;;;8.68;100.00;100946.03;6102096;23;20229;-73
2024/02/19 03:32:44;;;;;;;2.23;1.37;;;;;;;8.70;100.00;100941.25;6067867;23;20607;-73
2024/02/19 03:35:12;;;;;;;2.63;1.40;;;;;;;8.70;100.00;100939.38;6102903;23;20198;-73
2024/02/19 03:37:38;;;;;;;1.53;1.20;;;;;;;8.72;100.00;100936.44;6102791;23;20176;-73
2024/02/19 03:40:07;;;;;;;2.23;1.10;;;;;;;8.73;100.00;100930.88;6067844;23;20233;-74
2024/02/19 03:42:33;;;;;;;3.03;1.30;;;;;;;8.74;100.00;100931.63;6067518;23;20608;-74
2024/02/19 03:45:00;;;;;;;2.53;1.20;;;;;;;8.75;100.00;100926.06;6103272;23;20212;-73
2024/02/19 03:47:26;;;;;;;1.77;1.00;;;;;;;8.78;100.00;100929.97;6102565;23;20174;-73
2024/02/19 03:49:53;;;;;;;2.13;1.00;;;;;;;8.79;100.00;100926.25;6067520;23;20198;-73
2024/02/19 03:56:08;;;;;;;1.00;0.90;;;;;;;8.86;100.00;100918.69;6102762;23;20646;-73
2024/02/19 03:58:35;;;;;;;1.10;1.10;;;;;;;8.87;100.00;100921.03;6102481;23;20588;-73
2024/02/19 04:01:01;;;;;;;1.27;1.17;;;;;;;8.88;100.00;100906.78;6103293;23;20174;-73
2024/02/19 04:03:27;;;;;;;0.90;0.77;;;;;;;8.90;100.00;100917.00;6103106;23;20521;-73
2024/02/19 04:05:54;;;;;;;1.10;1.00;;;;;;;8.92;100.00;100920.09;6102693;23;20162;-73
2024/02/19 04:08:20;;;;;;;0.90;0.90;;;;;;;8.94;100.00;100925.81;6101766;23;20362;-72
2024/02/19 04:10:47;;;;;;;1.03;0.93;;;;;;;8.94;100.00;100920.56;6103151;23;20166;-73
2024/02/19 04:13:15;;;;;;;2.43;1.10;;;;;;;8.94;100.00;100918.72;6067388;23;20174;-73
2024/02/19 04:15:41;;;;;;;0.80;0.80;;;;;;;8.95;100.00;100915.00;6102072;23;20184;-73
2024/02/19 04:18:08;;;;;;;0.90;0.90;;;;;;;8.96;100.00;100900.75;6102296;23;20264;-73
2024/02/19 04:20:34;;;;;;;1.30;1.20;;;;;;;8.98;100.00;100901.22;6102552;23;20515;-73
2024/02/19 04:23:00;;;;;;;1.00;1.00;;;;;;;8.99;100.00;100904.63;6102021;23;20197;-73
2024/02/19 04:25:27;;;;;;;0.90;0.90;;;;;;;9.00;100.00;100904.31;6102498;23;20162;-73
2024/02/19 04:27:53;;;;;;;1.40;1.30;;;;;;;9.00;100.00;100908.81;6102699;23;20195;-73
2024/02/19 04:30:21;;;;;;;1.07;0.97;;;;;;;8.99;100.00;100894.88;6102091;23;20172;-73
2024/02/19 04:32:47;;;;;;;0.90;0.80;;;;;;;8.99;100.00;100902.78;6101567;23;20391;-73
2024/02/19 04:35:13;;;;;;;0.93;0.93;;;;;;;8.99;100.00;100900.13;6101448;23;20192;-73
2024/02/19 04:37:43;;;;;;;1.00;1.00;;;;;;;8.99;100.00;100889.59;6102436;23;20678;-73
2024/02/19 04:40:12;;;;;;;1.20;1.10;;;;;;;8.98;100.00;100893.31;6066771;23;20180;-73
2024/02/19 04:42:38;;;;;;;0.97;0.90;;;;;;;8.95;100.00;100893.94;6066853;23;20620;-73
2024/02/19 04:45:06;;;;;;;0.90;0.90;;;;;;;8.96;100.00;100892.06;6066172;23;20181;-73
2024/02/19 04:47:33;;;;;;;0.73;0.73;;;;;;;8.92;100.00;100886.66;6067049;23;20178;-73
2024/02/19 04:50:34;;;;;;;0.70;0.70;;;;;;;8.89;100.00;100899.63;6102298;23;20162;-73
2024/02/19 04:53:00;;;;;;;0.80;0.80;;;;;;;8.85;100.00;100881.03;6101261;23;20623;-74
2024/02/19 04:55:26;;;;;;;0.70;0.70;;;;;;;8.83;100.00;100885.06;6102202;23;20189;-73
2024/02/19 04:57:53;;;;;;;0.83;0.83;;;;;;;8.80;100.00;100881.19;6102036;23;20636;-73
2024/02/19 05:00:20;;;;;;;1.80;1.00;;;;;;;8.76;100.00;100876.84;6101733;23;20616;-73
2024/02/19 05:02:48;;;;;;;0.90;0.90;;;;;;;8.74;100.00;100889.50;6066042;23;20260;-73
2024/02/19 05:05:14;;;;;;;0.60;0.60;;;;;;;8.72;100.00;100889.06;6101434;23;20310;-73
2024/02/19 05:07:41;;;;;;;0.90;0.90;;;;;;;8.69;100.00;100879.91;6100834;23;20176;-73
2024/02/19 05:10:08;;;;;;;0.60;0.60;;;;;;;8.68;100.00;100882.84;6101679;23;20187;-73
2024/02/19 05:12:35;;;;;;;1.77;0.80;;;;;;;8.65;100.00;100881.59;6101147;23;20709;-73
2024/02/19 05:15:02;;;;;;;1.57;0.70;;;;;;;8.64;100.00;100884.56;6101438;23;20508;-74
2024/02/19 05:17:28;;;;;;;0.80;0.80;;;;;;;8.62;100.00;100881.44;6101355;23;20163;-73
2024/02/19 05:19:56;;;;;;;3.00;0.90;;;;;;;8.59;100.00;100889.94;6101291;23;20186;-73
2024/02/19 05:22:23;;;;;;;0.87;0.67;;;;;;;8.57;100.00;100885.00;6101653;23;20458;-73
2024/02/19 05:24:49;;;;;;;1.33;0.63;;;;;;;8.55;100.00;100889.75;6101428;23;20170;-73
2024/02/19 05:27:16;;;;;;;0.53;0.53;;;;;;;8.51;100.00;100882.78;6101327;23;20644;-74
2024/02/19 05:29:43;;;;;;;0.60;0.60;;;;;;;8.50;100.00;100884.63;6066026;23;20694;-73
2024/02/19 05:32:09;;;;;;;0.70;0.70;;;;;;;8.49;100.00;100883.09;6101727;23;20555;-73
2024/02/19 05:34:35;;;;;;;0.60;0.60;;;;;;;8.46;100.00;100896.88;6101310;23;20182;-74
2024/02/19 05:37:03;;;;;;;0.60;0.60;;;;;;;8.44;100.00;100899.00;6101698;23;20181;-73
2024/02/19 05:39:30;;;;;;;0.73;0.73;;;;;;;8.41;100.00;100898.84;6101925;23;20194;-73
2024/02/19 05:41:56;;;;;;;0.70;0.60;;;;;;;8.38;100.00;100891.56;6100803;23;20173;-73
2024/02/19 05:44:22;;;;;;;0.90;0.90;;;;;;;8.38;100.00;100905.47;6065413;23;20177;-73
2024/02/19 05:46:49;;;;;;;0.73;0.73;;;;;;;8.35;100.00;100908.75;6100553;23;20235;-73
2024/02/19 05:49:15;;;;;;;0.80;0.80;;;;;;;8.32;100.00;100906.69;6065525;23;20207;-73
2024/02/19 05:51:42;;;;;;;0.77;0.77;;;;;;;8.32;100.00;100913.81;6100497;23;20179;-74
2024/02/19 05:54:10;;;;;;;0.70;0.70;;;;;;;8.29;100.00;100920.44;6101374;23;20245;-74
2024/02/19 05:56:36;;;;;;;0.60;0.60;;;;;;;8.29;100.00;100915.19;6100937;23;20178;-74
2024/02/19 05:59:02;;;;;;;0.70;0.70;;;;;;;8.27;100.00;100927.09;6100650;23;20516;-74
2024/02/19 06:01:29;;;;;;;1.00;0.90;;;;;;;8.26;100.00;100928.16;6101051;23;20269;-74
2024/02/19 06:03:55;;;;;;;0.90;0.90;;;;;;;8.24;100.00;100930.34;6099774;23;20526;-74
2024/02/19 06:06:21;;;;;;;2.20;1.00;;;;;;;8.20;100.00;100935.41;6100016;23;20639;-74
2024/02/19 06:08:48;;;;;;;0.80;0.80;;;;;;;8.18;100.00;100937.53;6100513;23;20188;-74
2024/02/19 06:11:15;;;;;;;1.13;1.10;;;;;;;8.14;100.00;100935.81;6100881;23;20322;-74
2024/02/19 06:13:42;;;;;;;1.00;1.00;;;;;;;8.14;100.00;100948.97;6100116;23;20168;-74
2024/02/19 06:16:08;;;;;;;0.97;0.97;;;;;;;8.11;100.00;100946.91;6098301;23;20188;-74
2024/02/19 06:18:35;;;;;;;0.90;0.90;;;;;;;8.10;100.00;100950.63;6064642;23;20654;-74
2024/02/19 06:21:01;;;;;;;0.93;0.90;;;;;;;8.08;100.00;100960.69;6064210;23;20186;-73
2024/02/19 06:23:28;;;;;;;1.00;1.00;;;;;;;8.08;100.00;100968.56;6099809;23;20255;-73
2024/02/19 06:25:54;;;;;;;1.00;1.00;;;;;;;8.05;100.00;100972.56;6099480;23;20196;-75
2024/02/19 06:28:22;;;;;;;0.90;0.90;;;;;;;8.04;100.00;100975.50;6099334;23;20184;-75
2024/02/19 06:30:48;;;;;;;0.70;0.70;;;;;;;8.02;100.00;100986.31;6063276;23;20172;-75
2024/02/19 06:33:15;;;;;;;0.90;0.90;;;;;;;8.01;100.00;100984.75;6099252;23;20164;-75
2024/02/19 06:35:41;;;;;;;1.03;0.80;;;;;;;7.99;100.00;100992.19;6065112;23;20204;-75
2024/02/19 06:38:08;;;;;;;0.90;0.90;;;;;;;7.96;100.00;101000.66;6064316;23;20231;-76
2024/02/19 06:40:35;;;;;;;0.90;0.90;;;;;;;7.92;100.00;100988.41;6063346;23;20693;-76
2024/02/19 06:43:01;;;;;;;1.00;0.90;;;;;;;7.91;100.00;101005.22;6099689;23;20171;-75
2024/02/19 06:45:29;;;;;;;1.30;1.20;;;;;;;7.86;100.00;101014.03;6100719;23;20172;-76
2024/02/19 06:47:55;;;;;;;1.53;1.00;;;;;;;7.83;100.00;101013.84;6064509;23;20514;-76
2024/02/19 06:50:21;;;;;;;1.20;1.10;;;;;;;7.80;100.00;101027.56;6063814;23;20239;-76
2024/02/19 06:52:48;;;;;;;1.30;1.20;;;;;;;7.76;100.00;101029.25;6065302;23;20182;-76
2024/02/19 06:55:17;;;;;;;1.23;1.13;;;;;;;7.72;100.00;101031.66;6065217;23;20186;-75
2024/02/19 06:57:44;;;;;;;1.20;1.10;;;;;;;7.69;100.00;101034.91;6099158;23;20189;-75
2024/02/19 07:00:12;;;;;;;1.80;1.17;;;;;;;7.70;100.00;101039.06;6100756;23;20545;-76
2024/02/19 07:02:39;;;;;;;1.43;1.33;;;;;;;7.66;100.00;101047.84;6055204;23;20177;-76
2024/02/19 07:05:07;;;;;;;2.10;1.20;;;;;;;7.64;100.00;101056.03;6099582;23;20231;-75
2024/02/19 07:07:56;;;;;;;1.40;1.30;;;;;;;7.61;100.00;101055.84;6063574;23;20482;-75
2024/02/19 07:10:22;;;;;;;1.30;1.20;;;;;;;7.60;100.00;101052.44;6102467;23;20580;-75
2024/02/19 07:12:50;;;;;;;2.17;1.00;;;;;;;7.59;100.00;101058.75;6102609;23;20171;-75
2024/02/19 07:15:16;;;;;;;1.10;1.00;;;;;;;7.57;100.00;101063.50;6102115;23;20168;-73
2024/02/19 07:17:44;;;;;;;0.83;0.83;;;;;;;7.58;100.00;101064.31;6102139;23;20261;-73
2024/02/19 07:20:11;;;;;;;1.00;1.00;;;;;;;7.57;100.00;101070.63;6101683;23;20618;-73
2024/02/19 07:22:38;;;;;;;1.20;1.10;;;;;;;7.57;100.00;101087.16;6102160;23;20198;-73
2024/02/19 07:25:05;;;;;;;1.10;0.93;;;;;;;7.60;100.00;101080.53;6100639;23;20167;-73
2024/02/19 07:27:31;;;;;;;1.00;0.80;;;;;;;7.59;100.00;101090.28;6101458;23;20169;-73
2024/02/19 07:29:57;;;;;;;1.53;0.90;;;;;;;7.55;100.00;101094.56;6101215;23;20249;-73
2024/02/19 07:32:24;;;;;;;0.70;0.60;;;;;;;7.53;100.00;101096.72;6101022;23;20252;-73
2024/02/19 07:34:53;;;;;;;0.40;0.40;;;;;;;7.53;100.00;101107.25;6102119;23;20174;-73
2024/02/19 07:37:20;;;;;;;0.40;0.40;;;;;;;7.50;100.00;101107.03;6101473;23;20187;-73
2024/02/19 07:39:46;;;;;;;1.73;0.90;;;;;;;7.49;100.00;101121.22;6101696;23;20192;-73
2024/02/19 07:42:12;;;;;;;0.60;0.60;;;;;;;7.49;100.00;101118.59;6101302;23;20170;-73
2024/02/19 07:44:39;;;;;;;1.30;0.63;;;;;;;7.46;100.00;101125.22;6067593;23;20633;-73
2024/02/19 07:47:05;;;;;;;0.83;0.80;;;;;;;7.47;100.00;101132.06;6101858;23;20235;-73
2024/02/19 07:49:32;;;;;;;0.50;0.50;;;;;;;7.46;100.00;101129.72;6101454;23;20214;-73
2024/02/19 07:52:00;;;;;;;0.40;0.40;;;;;;;7.43;100.00;101138.97;6066478;23;20174;-73
2024/02/19 07:54:26;;;;;;;0.60;0.60;;;;;;;7.43;100.00;101133.69;6102182;23;20401;-72
2024/02/19 07:56:52;;;;;;;0.63;0.60;;;;;;;7.41;100.00;101135.06;6101205;23;20190;-73
2024/02/19 07:59:19;;;;;;;4.73;1.60;;;;;;;7.42;100.00;101145.28;6100172;23;20182;-73
2024/02/19 08:01:46;;;;;;;0.50;0.50;;;;;;;7.41;100.00;101145.56;6101542;23;20171;-73
2024/02/19 08:04:12;;;;;;;1.67;1.53;;;;;;;7.40;100.00;101149.28;6101464;23;20171;-73
2024/02/19 08:06:39;;;;;;;0.50;0.50;;;;;;;7.39;100.00;101148.47;6100548;23;20182;-72
2024/02/19 08:09:06;;;;;;;1.77;0.50;;;;;;;7.39;100.00;101155.56;6101309;23;20193;-73
2024/02/19 08:11:33;;;;;;;1.00;0.50;;;;;;;7.40;100.00;101154.53;6100978;23;20167;-72
2024/02/19 08:13:59;;;;;;;1.27;0.60;;;;;;;7.40;100.00;101155.28;6101440;23;20163;-73
2024/02/19 08:16:25;;;;;;;0.40;0.40;;;;;;;7.42;100.00;101152.38;6100390;23;20189;-73
2024/02/19 08:18:52;;;;;;;0.50;0.50;;;;;;;7.44;100.00;101161.53;6100720;23;20182;-73
2024/02/19 08:21:18;;;;;;;0.63;0.63;;;;;;;7.46;100.00;101161.25;6066073;23;20515;-72
2024/02/19 08:23:45;;;;;;;0.63;0.63;;;;;;;7.48;100.00;101159.09;6101555;23;20514;-73
2024/02/19 08:26:12;;;;;;;0.70;0.70;;;;;;;7.47;100.00;101168.06;6100969;23;20162;-73
2024/02/19 08:28:39;;;;;;;0.60;0.60;;;;;;;7.50;100.00;101167.47;6101047;23;20192;-73
2024/02/19 08:31:05;;;;;;;1.10;0.90;;;;;;;7.50;100.00;101173.50;6101788;23;20491;-73
2024/02/19 08:33:31;;;;;;;1.97;1.77;;;;;;;7.52;100.00;101168.75;6101267;23;20163;-73
2024/02/19 08:36:01;;;;;;;2.87;1.60;;;;;;;7.55;100.00;101172.63;6064833;23;20696;-72
2024/02/19 08:38:28;;;;;;;2.33;1.40;;;;;;;7.56;100.00;101171.56;6101120;23;20255;-73
2024/02/19 08:40:55;;;;;;;1.87;1.43;;;;;;;7.58;100.00;101177.31;6101237;23;20222;-72
2024/02/19 08:43:22;;;;;;;7.23;6.33;;;;;;;7.59;100.00;101187.53;6101149;23;20215;-73
2024/02/19 08:45:49;;;;;;;2.13;1.93;;;;;;;7.60;100.00;101194.34;6100672;23;20622;-72
2024/02/19 08:48:15;;;;;;;3.40;3.00;;;;;;;7.60;100.00;101188.28;6101394;23;20267;-74
2024/02/19 08:50:45;;;;;;;10.13;7.20;;;;;;;7.60;100.00;101196.19;6100327;23;20250;-74
2024/02/19 08:53:11;;;;;;;9.47;4.20;;;;;;;7.59;100.00;101197.25;6097649;23;20681;-74
2024/02/19 08:55:38;;;;;;;1.10;1.00;;;;;;;7.57;100.00;101215.16;6100477;23;20542;-74
2024/02/19 08:58:06;;;;;;;0.70;0.60;;;;;;;7.57;100.00;101207.28;6100305;23;20217;-75
2024/02/19 09:00:33;;;;;;;1.57;0.80;;;;;;;7.55;100.00;101206.78;6065555;23;20406;-74
2024/02/19 09:02:59;;;;;;;0.70;0.70;;;;;;;7.54;100.00;101207.84;6066186;23;20242;-72
2024/02/19 09:05:26;;;;;;;1.80;0.70;;;;;;;7.51;100.00;101226.84;6101048;23;20195;-72
2024/02/19 09:07:53;;;;;;;2.47;0.80;;;;;;;7.51;100.00;101221.59;6100380;23;20521;-72
2024/02/19 09:10:19;;;;;;;0.60;0.60;;;;;;;7.45;100.00;101220.88;6101062;23;20176;-74
2024/02/19 09:12:46;;;;;;;0.60;0.50;;;;;;;7.45;100.00;101228.00;6101623;23;20238;-75
2024/02/19 09:15:12;;;;;;;0.60;0.60;;;;;;;7.46;100.00;101232.94;6100916;23;20239;-74
2024/02/19 09:17:40;;;;;;;0.60;0.60;;;;;;;7.45;100.00;101238.50;6100859;23;20187;-73
2024/02/19 09:20:08;;;;;;;0.57;0.57;;;;;;;7.46;100.00;101242.69;6065587;23;20179;-74
2024/02/19 09:22:34;;;;;;;2.40;0.60;;;;;;;7.47;100.00;101244.25;6066484;23;20786;-74
2024/02/19 09:25:00;;;;;;;1.80;0.50;;;;;;;7.48;100.00;101253.69;6066065;23;20171;-74
2024/02/19 09:27:27;;;;;;;0.60;0.60;;;;;;;7.48;100.00;101248.44;6100898;23;20167;-74
2024/02/19 09:29:55;;;;;;;0.50;0.50;;;;;;;7.49;100.00;101258.66;6065252;23;20580;-74
2024/02/19 09:32:22;;;;;;;0.40;0.40;;;;;;;7.48;100.00;101265.00;6100456;23;20173;-73
2024/02/19 09:34:49;;;;;;;2.63;1.97;;;;;;;7.47;100.00;101260.00;6100811;23;20247;-74
2024/02/19 09:37:16;;;;;;;3.87;3.57;;;;;;;7.46;100.00;101258.47;6100259;23;20194;-74
2024/02/19 09:43:29;;;;;;;1.30;1.20;;;;;;;7.48;100.00;101275.50;6100945;23;20153;-73
2024/02/19 09:45:56;;;;;;;0.80;0.80;;;;;;;7.46;100.00;101277.63;6100170;23;20166;-74
2024/02/19 09:48:24;;;;;;;0.70;0.60;;;;;;;7.46;100.00;101276.84;6100161;23;20668;-74
2024/02/19 09:50:54;;;;;;;2.87;0.80;;;;;;;7.43;100.00;101283.47;6099865;23;20243;-73
2024/02/19 09:54:16;;;;;;;0.70;0.70;;;;;;;7.42;100.00;101281.91;6100914;23;20173;-74
2024/02/19 09:56:45;;;;;;;1.03;0.83;;;;;;;7.46;100.00;101285.50;6100000;23;20221;-74
2024/02/19 09:59:13;;;;;;;1.60;1.40;;;;;;;7.43;100.00;101291.34;6100292;23;20562;-74
2024/02/19 10:01:40;;;;;;;3.40;1.80;;;;;;;7.45;100.00;101298.94;6100089;23;20163;-74
2024/02/19 10:04:06;;;;;;;2.77;1.40;;;;;;;7.47;100.00;101299.44;6101112;23;20511;-74
2024/02/19 10:06:35;;;;;;;1.80;1.70;;;;;;;7.48;100.00;101301.78;6099149;23;20196;-74
2024/02/19 10:09:06;;;;;;;3.00;2.47;;;;;;;7.50;100.00;101312.78;6100437;23;20214;-74
2024/02/19 10:11:33;;;;;;;3.30;3.00;;;;;;;7.48;100.00;101314.91;6101271;23;20168;-74
2024/02/19 10:13:59;;;;;;;2.20;2.00;;;;;;;7.49;100.00;101310.41;6064947;23;20170;-74
2024/02/19 10:16:26;;;;;;;1.40;1.30;;;;;;;7.49;100.00;101316.47;6099622;23;20549;-74
2024/02/19 10:19:03;;;;;;;1.20;1.10;;;;;;;7.50;100.00;101320.66;6100056;23;20217;-74
2024/02/19 10:21:30;;;;;;;0.90;0.90;;;;;;;7.50;100.00;101318.03;6064630;23;20774;-74
2024/02/19 10:23:57;;;;;;;0.73;0.73;;;;;;;7.55;100.00;101320.56;6099897;23;20654;-73
2024/02/19 10:26:24;;;;;;;1.20;0.97;;;;;;;7.57;100.00;101326.31;6099948;23;20619;-74
2024/02/19 10:28:51;;;;;;;0.80;0.80;;;;;;;7.56;100.00;101337.13;6099833;23;20285;-74
2024/02/19 10:31:19;;;;;;;1.13;0.90;;;;;;;7.58;100.00;101337.63;6098498;23;20642;-74
2024/02/19 10:33:45;;;;;;;0.80;0.80;;;;;;;7.58;100.00;101348.94;6099065;23;20167;-74
2024/02/19 10:36:15;;;;;;;1.30;1.20;;;;;;;7.59;100.00;101342.59;6097481;23;20178;-74
2024/02/19 10:38:42;;;;;;;1.00;1.00;;;;;;;7.55;100.00;101346.84;6099095;23;20196;-73
2024/02/19 10:41:09;;;;;;;1.17;1.03;;;;;;;7.54;100.00;101355.00;6101682;23;20175;-74
2024/02/19 10:43:36;;;;;;;2.80;1.13;;;;;;;7.54;100.00;101355.00;6102702;23;20547;-74
2024/02/19 10:46:03;;;;;;;1.10;1.00;;;;;;;7.52;100.00;101351.91;6102068;23;20183;-74
2024/02/19 10:48:30;;;;;;;2.60;1.20;;;;;;;7.49;100.00;101361.13;6041528;23;20284;-74
2024/02/19 10:50:58;;;;;;;2.30;1.03;;;;;;;7.51;100.00;101366.13;6015833;23;20200;-74
2024/02/19 10:53:28;;;;;;;1.17;1.00;;;;;;;7.50;100.00;101362.69;5981736;23;20520;-73
2024/02/19 10:56:11;;;;;;;0.97;0.97;;;;;;;7.48;100.00;101364.84;6015929;23;20174;-74
2024/02/19 10:58:37;;;;;;;0.83;0.83;;;;;;;7.46;100.00;101368.81;6015735;23;20277;-74
2024/02/19 11:01:06;;;;;;;1.20;1.10;;;;;;;7.45;100.00;101365.41;6016184;23;20177;-74
2024/02/19 11:03:43;;;;;;;0.83;0.70;;;;;;;7.47;100.00;101373.78;6015271;23;20309;-74
2024/02/19 11:06:12;;;;;;;0.90;0.90;;;;;;;7.50;100.00;101367.19;6015939;23;20173;-74
2024/02/19 11:08:40;;;;;;;0.90;0.90;;;;;;;7.52;100.00;101367.69;6004817;23;20204;-74
2024/02/19 11:11:06;;;;;;;0.90;0.90;;;;;;;7.51;100.00;101380.03;6016212;23;20169;-74
2024/02/19 11:13:38;;;;;;;0.80;0.80;;;;;;;7.53;100.00;101377.91;6015637;23;20204;-74
2024/02/19 11:16:15;;;;;;;1.10;0.80;;;;;;;7.53;100.00;101396.31;6003868;23;20640;-73
2024/02/19 11:18:41;;;;;;;0.80;0.80;;;;;;;7.54;100.00;101394.44;6015173;23;20206;-74
2024/02/19 11:21:09;;;;;;;2.53;0.80;;;;;;;7.55;100.00;101390.75;6004778;23;20598;-73
2024/02/19 11:23:35;;;;;;;1.90;1.30;;;;;;;7.53;100.00;101380.53;6015800;23;20554;-74
2024/02/19 11:26:02;;;;;;;0.57;0.57;;;;;;;7.50;100.00;101381.09;6015348;23;20255;-74
2024/02/19 11:28:32;;;;;;;0.60;0.60;;;;;;;7.55;100.00;101386.28;5981175;23;20190;-73
2024/02/19 11:31:01;;;;;;;0.80;0.60;;;;;;;7.58;100.00;101388.34;6015490;23;20288;-74
2024/02/19 11:33:28;;;;;;;0.70;0.70;;;;;;;7.62;100.00;101391.19;6015219;23;20174;-74
2024/02/19 11:35:56;;;;;;;0.70;0.70;;;;;;;7.67;100.00;101399.75;5979669;23;20694;-74